createdAt,value
2022-08-05T00:01:27.691Z,100.00
2022-08-05T00:04:19.690Z,100.00
2022-08-05T00:07:27.227Z,100.00
2022-08-05T00:10:17.800Z,100.00
2022-08-05T00:13:06.759Z,100.00
2022-08-05T00:16:11.060Z,100.00
2022-08-05T00:19:03.028Z,100.00
2022-08-05T00:21:54.074Z,100.00
2022-08-05T00:24:44.057Z,100.00
2022-08-05T00:27:36.152Z,100.00
2022-08-05T00:30:29.072Z,100.00
2022-08-05T00:34:56.798Z,100.00
2022-08-05T00:37:10.307Z,100.00
2022-08-05T00:39:44.347Z,100.00
2022-08-05T00:42:49.062Z,100.00
2022-08-05T00:45:43.662Z,100.00
2022-08-05T00:48:34.222Z,100.00
2022-08-05T00:51:51.676Z,100.00
2022-08-05T00:54:42.042Z,100.00
2022-08-05T00:57:55.372Z,100.00
2022-08-05T01:00:42.540Z,100.00
2022-08-05T01:03:33.409Z,100.00
2022-08-05T01:06:32.693Z,100.00
2022-08-05T01:09:22.284Z,100.00
2022-08-05T01:12:19.190Z,100.00
2022-08-05T01:15:35.296Z,100.00
2022-08-05T01:18:27.486Z,100.00
2022-08-05T01:21:38.144Z,100.00
2022-08-05T01:24:48.139Z,100.00
2022-08-05T01:27:55.819Z,100.00
2022-08-05T01:30:53.947Z,100.00
2022-08-05T01:33:53.671Z,100.00
2022-08-05T01:36:47.654Z,100.00
2022-08-05T01:39:46.224Z,100.00
2022-08-05T01:42:39.412Z,100.00
2022-08-05T01:45:35.045Z,100.00
2022-08-05T01:48:35.148Z,100.00
2022-08-05T01:51:27.095Z,100.00
2022-08-05T01:54:25.575Z,100.00
2022-08-05T01:58:30.023Z,100.00
2022-08-05T02:00:30.375Z,100.00
2022-08-05T02:03:28.900Z,100.00
2022-08-05T02:06:37.777Z,100.00
2022-08-05T02:09:28.244Z,100.00
2022-08-05T02:12:25.829Z,100.00
2022-08-05T02:15:22.904Z,100.00
2022-08-05T02:18:31.819Z,100.00
2022-08-05T02:21:26.690Z,100.00
2022-08-05T02:24:23.388Z,100.00
2022-08-05T02:27:13.324Z,100.00
2022-08-05T02:30:03.340Z,100.00
2022-08-05T02:32:55.890Z,100.00
2022-08-05T02:35:57.515Z,100.00
2022-08-05T02:38:53.250Z,100.00
2022-08-05T02:42:00.680Z,100.00
2022-08-05T02:44:51.558Z,100.00
2022-08-05T02:48:07.684Z,100.00
2022-08-05T02:50:52.592Z,100.00
2022-08-05T02:53:43.078Z,100.00
2022-08-05T02:56:33.648Z,100.00
2022-08-05T02:59:26.941Z,100.00
2022-08-05T03:02:20.074Z,100.00
2022-08-05T03:05:11.996Z,100.00
2022-08-05T03:08:08.519Z,100.00
2022-08-05T03:11:53.611Z,100.00
2022-08-05T03:14:08.146Z,100.00
2022-08-05T03:16:57.497Z,100.00
2022-08-05T03:19:48.468Z,100.00
2022-08-05T03:22:38.694Z,100.00
2022-08-05T03:26:04.461Z,100.00
2022-08-05T03:28:47.952Z,100.00
2022-08-05T03:31:57.136Z,100.00
2022-08-05T03:34:50.518Z,100.00
2022-08-05T03:37:45.931Z,100.00
2022-08-05T03:40:39.840Z,100.00
2022-08-05T03:44:09.406Z,100.00
2022-08-05T03:46:38.440Z,100.00
2022-08-05T03:49:31.201Z,100.00
2022-08-05T03:55:50.310Z,100.00
2022-08-05T03:56:09.950Z,100.00
2022-08-05T03:59:04.702Z,100.00
2022-08-05T04:01:59.248Z,100.00
2022-08-05T04:04:49.001Z,100.00
2022-08-05T04:07:57.165Z,100.00
2022-08-05T04:10:48.008Z,100.00
2022-08-05T04:13:50.672Z,100.00
2022-08-05T04:16:41.092Z,100.00
2022-08-05T04:19:31.440Z,100.00
2022-08-05T04:22:21.265Z,100.00
2022-08-05T04:25:12.691Z,100.00
2022-08-05T04:28:06.017Z,100.00
2022-08-05T04:31:01.446Z,100.00
2022-08-05T04:34:19.235Z,100.00
2022-08-05T04:37:00.082Z,100.00
2022-08-05T04:39:52.923Z,100.00
2022-08-05T04:42:42.077Z,100.00
2022-08-05T04:45:47.807Z,100.00
2022-08-05T04:48:39.451Z,100.00
2022-08-05T04:51:30.636Z,100.00
2022-08-05T04:54:20.240Z,100.00
2022-08-05T04:57:11.450Z,100.00
2022-08-05T05:00:01.905Z,100.00
2022-08-05T05:02:50.856Z,100.00
2022-08-05T05:06:39.234Z,100.00
2022-08-05T05:08:49.982Z,100.00
2022-08-05T05:11:52.846Z,100.00
2022-08-05T05:14:50.726Z,100.00
2022-08-05T05:17:56.779Z,100.00
2022-08-05T05:20:47.952Z,100.00
2022-08-05T05:24:02.139Z,100.00
2022-08-05T05:26:51.975Z,100.00
2022-08-05T05:30:04.038Z,100.00
2022-08-05T05:32:52.978Z,100.00
2022-08-05T05:35:42.735Z,100.00
2022-08-05T05:38:32.198Z,100.00
2022-08-05T05:41:21.158Z,100.00
2022-08-05T05:44:36.848Z,100.00
2022-08-05T05:47:22.072Z,100.00
2022-08-05T05:50:16.445Z,100.00
2022-08-05T05:53:21.960Z,100.00
2022-08-05T05:56:14.164Z,100.00
2022-08-05T05:59:15.537Z,100.00
2022-08-05T06:02:04.702Z,100.00
2022-08-05T06:04:58.007Z,100.00
2022-08-05T06:07:57.854Z,100.00
2022-08-05T06:10:52.881Z,100.00
2022-08-05T06:13:50.443Z,100.00
2022-08-05T06:16:45.614Z,100.00
2022-08-05T06:19:35.941Z,100.00
2022-08-05T06:22:28.451Z,100.00
2022-08-05T06:25:59.857Z,100.00
2022-08-05T06:28:28.420Z,100.00
2022-08-05T06:31:21.760Z,100.00
2022-08-05T06:34:11.466Z,100.00
2022-08-05T06:37:04.725Z,100.00
2022-08-05T06:39:56.551Z,100.00
2022-08-05T06:42:47.969Z,100.00
2022-08-05T06:46:03.134Z,100.00
2022-08-05T06:48:55.427Z,100.00
2022-08-05T06:51:48.438Z,100.00
2022-08-05T06:54:37.398Z,100.00
2022-08-05T06:58:03.493Z,100.00
2022-08-05T07:00:34.774Z,100.00
2022-08-05T07:03:28.024Z,100.00
2022-08-05T07:06:23.096Z,100.00
2022-08-05T07:09:12.098Z,100.00
2022-08-05T07:12:03.106Z,100.00
2022-08-05T07:15:10.091Z,100.00
2022-08-05T07:18:09.864Z,100.00
2022-08-05T07:21:04.675Z,100.00
2022-08-05T07:23:56.994Z,100.00
2022-08-05T07:26:51.627Z,100.00
2022-08-05T07:30:25.574Z,100.00
2022-08-05T07:32:50.877Z,100.00
2022-08-05T07:36:02.438Z,100.00
2022-08-05T07:38:54.764Z,100.00
2022-08-05T07:42:14.353Z,100.00
2022-08-05T07:44:56.154Z,100.00
2022-08-05T07:47:45.523Z,100.00
2022-08-05T07:50:35.101Z,100.00
2022-08-05T07:53:26.835Z,100.00
2022-08-05T07:57:00.183Z,100.00
2022-08-05T07:59:40.296Z,100.00
2022-08-05T08:03:15.407Z,100.00
2022-08-05T08:05:47.275Z,100.00
2022-08-05T08:08:41.384Z,100.00
2022-08-05T08:11:49.491Z,98.38
2022-08-05T08:14:41.180Z,99.84
2022-08-05T08:17:35.431Z,97.36
2022-08-05T08:20:45.074Z,97.53
2022-08-05T08:24:02.637Z,95.30
2022-08-05T08:26:45.163Z,94.15
2022-08-05T08:30:04.321Z,91.17
2022-08-05T08:32:44.178Z,90.54
2022-08-05T08:35:35.027Z,91.50
2022-08-05T08:38:35.238Z,91.24
2022-08-05T08:41:52.049Z,88.64
2022-08-05T08:45:23.212Z,88.38
2022-08-05T08:48:10.743Z,87.91
2022-08-05T08:51:22.177Z,86.63
2022-08-05T08:54:13.760Z,86.19
2022-08-05T08:57:03.033Z,85.37
2022-08-05T08:59:56.020Z,81.06
2022-08-05T09:02:46.630Z,80.97
2022-08-05T09:05:38.846Z,80.95
2022-08-05T09:08:47.784Z,80.97
2022-08-05T09:11:51.052Z,80.19
2022-08-05T09:14:57.030Z,76.52
2022-08-05T09:17:50.037Z,74.22
2022-08-05T09:20:44.082Z,73.89
2022-08-05T09:23:37.427Z,74.17
2022-08-05T09:26:32.859Z,72.26
2022-08-05T09:29:37.177Z,70.12
2022-08-05T09:32:42.804Z,72.06
2022-08-05T09:35:36.612Z,74.35
2022-08-05T09:38:29.519Z,72.74
2022-08-05T09:41:18.416Z,68.16
2022-08-05T09:44:11.188Z,67.27
2022-08-05T09:47:10.436Z,63.85
2022-08-05T09:50:04.137Z,63.05
2022-08-05T09:52:58.810Z,64.28
2022-08-05T09:55:56.199Z,62.94
2022-08-05T09:58:58.809Z,61.48
2022-08-05T10:01:48.240Z,62.41
2022-08-05T10:04:48.057Z,62.45
2022-08-05T10:08:35.353Z,58.96
2022-08-05T10:10:59.153Z,59.42
2022-08-05T10:13:54.532Z,60.43
2022-08-05T10:16:52.395Z,62.00
2022-08-05T10:20:03.949Z,61.73
2022-08-05T10:22:54.478Z,59.32
2022-08-05T10:25:47.374Z,57.26
2022-08-05T10:28:36.856Z,56.56
2022-08-05T10:32:52.721Z,56.69
2022-08-05T10:34:36.784Z,58.09
2022-08-05T10:37:37.477Z,54.91
2022-08-05T10:40:38.962Z,55.10
2022-08-05T10:43:41.280Z,54.38
2022-08-05T10:46:46.077Z,52.73
2022-08-05T10:50:32.225Z,53.86
2022-08-05T10:53:37.971Z,53.37
2022-08-05T10:56:30.528Z,53.57
2022-08-05T11:00:03.354Z,53.91
2022-08-05T11:02:37.973Z,54.11
2022-08-05T11:05:31.584Z,52.62
2022-08-05T11:08:34.321Z,54.52
2022-08-05T11:11:52.050Z,54.94
2022-08-05T11:15:01.311Z,53.27
2022-08-05T11:18:07.475Z,53.17
2022-08-05T11:21:00.033Z,51.67
2022-08-05T11:24:02.983Z,51.52
2022-08-05T11:27:26.223Z,51.08
2022-08-05T11:30:15.032Z,50.57
2022-08-05T11:33:44.013Z,49.85
2022-08-05T11:36:46.878Z,49.77
2022-08-05T11:39:55.304Z,49.42
2022-08-05T11:42:47.502Z,49.98
2022-08-05T11:46:16.195Z,50.39
2022-08-05T11:48:59.593Z,50.31
2022-08-05T11:51:51.087Z,49.35
2022-08-05T11:54:43.423Z,48.37
2022-08-05T11:57:39.261Z,47.31
2022-08-05T12:00:47.040Z,46.51
2022-08-05T12:03:55.500Z,46.03
2022-08-05T12:06:48.921Z,46.01
2022-08-05T12:09:53.325Z,44.85
2022-08-05T12:12:58.472Z,44.64
2022-08-05T12:15:49.961Z,46.01
2022-08-05T12:18:39.511Z,45.55
2022-08-05T12:21:38.978Z,45.42
2022-08-05T12:24:28.085Z,44.60
2022-08-05T12:27:25.386Z,43.62
2022-08-05T12:30:15.707Z,43.85
2022-08-05T12:33:07.220Z,44.02
2022-08-05T12:36:15.259Z,44.47
2022-08-05T12:39:06.901Z,43.71
2022-08-05T12:41:59.661Z,43.44
2022-08-05T12:44:49.721Z,42.63
2022-08-05T12:47:43.572Z,41.73
2022-08-05T12:52:10.129Z,42.37
2022-08-05T12:54:29.657Z,42.48
2022-08-05T12:57:23.428Z,41.96
2022-08-05T13:02:00.764Z,41.78
2022-08-05T13:03:32.893Z,40.26
2022-08-05T13:06:22.625Z,40.60
2022-08-05T13:09:12.787Z,40.35
2022-08-05T13:12:08.736Z,40.73
2022-08-05T13:15:13.709Z,40.19
2022-08-05T13:18:06.471Z,40.48
2022-08-05T13:20:55.894Z,39.60
2022-08-05T13:23:50.868Z,40.16
2022-08-05T13:26:41.395Z,40.41
2022-08-05T13:29:39.568Z,39.74
2022-08-05T13:32:50.505Z,38.42
2022-08-05T13:35:47.330Z,38.22
2022-08-05T13:38:43.170Z,38.45
2022-08-05T13:41:37.468Z,38.69
2022-08-05T13:44:26.971Z,38.41
2022-08-05T13:47:28.133Z,38.27
2022-08-05T13:50:25.371Z,38.27
2022-08-05T13:53:15.741Z,37.26
2022-08-05T13:56:18.081Z,37.38
2022-08-05T13:59:20.187Z,37.37
2022-08-05T14:02:20.102Z,37.25
2022-08-05T14:05:11.992Z,37.48
2022-08-05T14:08:19.847Z,37.48
2022-08-05T14:11:20.634Z,37.59
2022-08-05T14:14:11.199Z,37.61
2022-08-05T14:17:01.182Z,37.58
2022-08-05T14:19:55.144Z,37.45
2022-08-05T14:22:50.163Z,37.25
2022-08-05T14:25:43.595Z,36.78
2022-08-05T14:28:34.637Z,36.81
2022-08-05T14:32:02.379Z,37.36
2022-08-05T14:34:35.446Z,37.27
2022-08-05T14:37:45.367Z,38.01
2022-08-05T14:40:34.937Z,37.66
2022-08-05T14:43:39.196Z,37.99
2022-08-05T14:46:35.123Z,37.64
2022-08-05T14:49:24.737Z,37.78
2022-08-05T14:52:51.987Z,37.84
2022-08-05T14:55:42.802Z,37.63
2022-08-05T14:58:33.507Z,37.97
2022-08-05T15:01:49.163Z,38.00
2022-08-05T15:04:31.593Z,38.44
2022-08-05T15:08:11.268Z,37.95
2022-08-05T15:10:31.019Z,37.71
2022-08-05T15:13:21.002Z,37.85
2022-08-05T15:16:30.239Z,38.16
2022-08-05T15:19:23.487Z,37.80
2022-08-05T15:22:13.612Z,37.51
2022-08-05T15:25:11.929Z,37.67
2022-08-05T15:28:04.107Z,37.85
2022-08-05T15:30:53.681Z,37.82
2022-08-05T15:34:05.115Z,37.89
2022-08-05T15:36:52.284Z,37.63
2022-08-05T15:41:04.618Z,37.35
2022-08-05T15:42:55.072Z,37.60
2022-08-05T15:46:00.606Z,37.26
2022-08-05T15:48:53.000Z,37.48
2022-08-05T15:52:09.950Z,38.07
2022-08-05T15:54:57.725Z,38.17
2022-08-05T15:57:48.998Z,38.21
2022-08-05T16:01:04.134Z,37.77
2022-08-05T16:03:50.902Z,38.35
2022-08-05T16:06:40.605Z,38.42
2022-08-05T16:09:29.973Z,39.01
2022-08-05T16:12:21.932Z,39.09
2022-08-05T16:15:18.662Z,39.09
2022-08-05T16:18:09.216Z,39.23
2022-08-05T16:20:59.569Z,39.44
2022-08-05T16:23:55.377Z,39.70
2022-08-05T16:26:54.301Z,39.68
2022-08-05T16:29:47.490Z,40.53
2022-08-05T16:32:40.567Z,40.60
2022-08-05T16:35:34.522Z,40.59
2022-08-05T16:38:31.656Z,40.87
2022-08-05T16:42:12.118Z,40.74
2022-08-05T16:44:31.228Z,41.19
2022-08-05T16:47:28.760Z,41.50
2022-08-05T16:50:26.354Z,41.65
2022-08-05T16:53:22.823Z,42.18
2022-08-05T16:56:21.067Z,42.64
2022-08-05T16:59:15.747Z,43.37
2022-08-05T17:02:06.866Z,43.80
2022-08-05T17:04:58.392Z,44.29
2022-08-05T17:07:54.577Z,45.06
2022-08-05T17:10:44.192Z,45.45
2022-08-05T17:13:37.638Z,46.02
2022-08-05T17:16:33.702Z,46.92
2022-08-05T17:19:25.317Z,47.30
2022-08-05T17:22:24.446Z,47.95
2022-08-05T17:25:22.299Z,48.74
2022-08-05T17:28:24.144Z,49.34
2022-08-05T17:31:24.524Z,50.13
2022-08-05T17:34:29.853Z,50.75
2022-08-05T17:37:39.539Z,51.62
2022-08-05T17:40:31.521Z,52.58
2022-08-05T17:43:46.910Z,53.25
2022-08-05T17:46:31.827Z,54.25
2022-08-05T17:49:22.441Z,54.96
2022-08-05T17:52:12.628Z,56.38
2022-08-05T17:55:02.983Z,57.34
2022-08-05T17:57:52.189Z,58.13
2022-08-05T18:00:45.195Z,58.70
2022-08-05T18:03:59.518Z,59.32
2022-08-05T18:06:46.103Z,59.55
2022-08-05T18:09:59.050Z,60.26
2022-08-05T18:12:49.637Z,60.92
2022-08-05T18:15:38.995Z,61.98
2022-08-05T18:18:30.205Z,63.09
2022-08-05T18:21:22.782Z,63.53
2022-08-05T18:24:15.499Z,64.50
2022-08-05T18:27:06.454Z,65.12
2022-08-05T18:30:03.046Z,65.63
2022-08-05T18:33:00.200Z,66.02
2022-08-05T18:36:03.339Z,66.79
2022-08-05T18:38:54.035Z,67.09
2022-08-05T18:41:56.684Z,68.01
2022-08-05T18:44:56.549Z,68.62
2022-08-05T18:47:50.137Z,69.38
2022-08-05T18:51:49.597Z,70.03
2022-08-05T18:54:09.551Z,70.91
2022-08-05T18:56:57.897Z,71.59
2022-08-05T19:00:01.374Z,72.34
2022-08-05T19:02:53.141Z,72.94
2022-08-05T19:06:12.713Z,73.30
2022-08-05T19:08:52.651Z,74.05
2022-08-05T19:12:00.426Z,74.46
2022-08-05T19:15:00.847Z,74.85
2022-08-05T19:18:09.715Z,76.23
2022-08-05T19:21:01.134Z,75.96
2022-08-05T19:24:07.482Z,76.65
2022-08-05T19:26:58.094Z,77.36
2022-08-05T19:29:49.442Z,77.82
2022-08-05T19:32:38.683Z,79.94
2022-08-05T19:35:27.635Z,81.33
2022-08-05T19:38:36.815Z,83.26
2022-08-05T19:41:58.184Z,84.83
2022-08-05T19:44:38.738Z,86.24
2022-08-05T19:47:37.181Z,87.21
2022-08-05T19:50:27.532Z,88.08
2022-08-05T19:53:16.698Z,88.08
2022-08-05T19:56:32.674Z,88.57
2022-08-05T19:59:56.247Z,90.23
2022-08-05T20:02:33.547Z,91.66
2022-08-05T20:05:26.192Z,92.06
2022-08-05T20:08:32.728Z,93.24
2022-08-05T20:11:23.777Z,93.78
2022-08-05T20:14:18.096Z,94.60
2022-08-05T20:17:16.272Z,95.59
2022-08-05T20:20:09.452Z,96.39
2022-08-05T20:23:03.833Z,96.90
2022-08-05T20:25:54.023Z,97.42
2022-08-05T20:28:43.962Z,97.97
2022-08-05T20:31:43.222Z,98.45
2022-08-05T20:34:43.137Z,99.62
2022-08-05T20:38:05.459Z,100.00
2022-08-05T20:40:43.296Z,100.00
2022-08-05T20:43:59.927Z,100.00
2022-08-05T20:46:43.422Z,100.00
2022-08-05T20:49:39.777Z,100.00
2022-08-05T20:52:28.960Z,100.00
2022-08-05T20:55:56.479Z,100.00
2022-08-05T20:58:27.565Z,100.00
2022-08-05T21:01:17.995Z,100.00
2022-08-05T21:04:15.518Z,100.00
2022-08-05T21:07:05.299Z,100.00
2022-08-05T21:09:57.536Z,100.00
2022-08-05T21:12:58.341Z,100.00
2022-08-05T21:15:56.587Z,100.00
2022-08-05T21:18:45.925Z,100.00
2022-08-05T21:21:39.896Z,100.00
2022-08-05T21:24:39.814Z,100.00
2022-08-05T21:27:38.773Z,100.00
2022-08-05T21:30:28.385Z,100.00
2022-08-05T21:33:22.308Z,100.00
2022-08-05T21:36:13.267Z,100.00
2022-08-05T21:39:09.324Z,100.00
2022-08-05T21:42:01.926Z,100.00
2022-08-05T21:44:51.233Z,100.00
2022-08-05T21:47:56.385Z,100.00
2022-08-05T21:50:54.017Z,100.00
2022-08-05T21:53:43.485Z,100.00
2022-08-05T21:56:51.545Z,100.00
2022-08-05T22:00:02.094Z,100.00
2022-08-05T22:03:01.569Z,100.00
2022-08-05T22:05:50.526Z,100.00
2022-08-05T22:08:42.457Z,100.00
2022-08-05T22:11:34.528Z,100.00
2022-08-05T22:14:34.994Z,100.00
2022-08-05T22:17:27.256Z,100.00
2022-08-05T22:20:17.916Z,100.00
2022-08-05T22:23:25.246Z,100.00
2022-08-05T22:26:52.709Z,100.00
2022-08-05T22:29:42.081Z,100.00
2022-08-05T22:32:33.498Z,100.00
2022-08-05T22:35:22.567Z,100.00
2022-08-05T22:38:12.947Z,100.00
2022-08-05T22:41:09.440Z,100.00
2022-08-05T22:43:59.786Z,100.00
2022-08-05T22:46:48.949Z,100.00
2022-08-05T22:50:20.401Z,100.00
2022-08-05T22:52:47.160Z,100.00
2022-08-05T22:55:37.154Z,100.00
2022-08-05T22:58:46.364Z,100.00
2022-08-05T23:02:05.095Z,100.00
2022-08-05T23:04:52.015Z,100.00
2022-08-05T23:07:45.187Z,100.00
2022-08-05T23:10:38.454Z,100.00
2022-08-05T23:13:27.823Z,100.00
2022-08-05T23:16:38.699Z,100.00
2022-08-05T23:19:38.509Z,100.00
2022-08-05T23:22:35.667Z,100.00
2022-08-05T23:25:52.395Z,100.00
2022-08-05T23:28:35.733Z,100.00
2022-08-05T23:31:24.258Z,100.00
2022-08-05T23:34:13.470Z,100.00
2022-08-05T23:37:13.644Z,100.00
2022-08-05T23:40:09.497Z,100.00
2022-08-05T23:43:01.142Z,100.00
2022-08-05T23:46:01.418Z,100.00
2022-08-05T23:49:00.974Z,100.00
2022-08-05T23:52:08.827Z,100.00
2022-08-05T23:55:00.489Z,100.00
2022-08-05T23:57:51.259Z,100.00
